Time;durP1;ratioP1;P1;durP2;ratioP2;P2;SDS_P1;SDS_P2;PMS_P1;PMS_P2;Temp;Humidity;BMP_temperature;BMP_pressure;BME280_temperature;BME280_humidity;BME280_pressure;Samples;Min_cycle;Max_cycle;Signal;HPM_P1;HPM_P2
2023/10/19 00:00:19;;;;;;;4.50;2.33;;;;;;;;;;1031785;28;20030;-75
2023/10/19 00:00:50;;;;;;;0.25;0.25;;;;;;;;;;1035513;28;20026;-75
2023/10/19 00:01:24;;;;;;;2.33;1.40;;;;;;;;;;1035596;28;20077;-75
2023/10/19 00:01:54;;;;;;;1.33;1.13;;;;;;;;;;1038262;28;20025;-75
2023/10/19 00:02:25;;;;;;;1.42;0.93;;;;;;;;;;1039712;28;20120;-75
2023/10/19 00:02:56;;;;;;;2.13;2.03;;;;;;;;;;1039861;28;20021;-75
2023/10/19 00:03:26;;;;;;;4.63;4.03;;;;;;;;;;1035476;28;20096;-75
2023/10/19 00:03:57;;;;;;;0.50;0.50;;;;;;;;;;1035244;28;20030;-76
2023/10/19 00:04:32;;;;;;;1.23;1.10;;;;;;;;;;1035708;28;20111;-76
2023/10/19 00:05:03;;;;;;;2.92;1.52;;;;;;;;;;1035867;28;20034;-76
2023/10/19 00:05:34;;;;;;;0.20;0.20;;;;;;;;;;1035936;28;20457;-72
2023/10/19 00:06:05;;;;;;;0.38;0.38;;;;;;;;;;1035595;28;20022;-73
2023/10/19 00:06:36;;;;;;;0.88;0.88;;;;;;;;;;1035958;28;20167;-73
2023/10/19 00:07:08;;;;;;;2.05;1.17;;;;;;;;;;1036136;28;20033;-73
2023/10/19 00:07:39;;;;;;;0.30;0.30;;;;;;;;;;1035942;28;20132;-73
2023/10/19 00:08:43;;;;;;;1.38;1.30;;;;;;;;;;1039472;28;20025;-72
2023/10/19 00:09:11;;;;;;;2.00;1.85;;;;;;;;;;1039288;28;20036;-73
2023/10/19 00:09:45;;;;;;;2.28;1.65;;;;;;;;;;1039531;28;20326;-73
2023/10/19 00:10:17;;;;;;;0.77;0.77;;;;;;;;;;1035320;28;20424;-73
2023/10/19 00:11:01;;;;;;;1.05;1.02;;;;;;;;;;1035718;28;20750;-73
2023/10/19 00:11:32;;;;;;;0.25;0.25;;;;;;;;;;1035538;28;20875;-75
2023/10/19 00:12:08;;;;;;;3.55;1.65;;;;;;;;;;1035308;28;20501;-76
2023/10/19 00:12:39;;;;;;;3.17;1.27;;;;;;;;;;1035421;28;20413;-76
2023/10/19 00:13:11;;;;;;;1.13;1.02;;;;;;;;;;1035613;28;20120;-75
2023/10/19 00:13:43;;;;;;;0.45;0.45;;;;;;;;;;1035522;28;20025;-75
2023/10/19 00:14:17;;;;;;;3.10;1.30;;;;;;;;;;1035238;28;20026;-75
2023/10/19 00:14:47;;;;;;;21.33;1.90;;;;;;;;;;1035576;28;20032;-75
2023/10/19 00:15:23;;;;;;;0.40;0.40;;;;;;;;;;1035835;28;20072;-76
2023/10/19 00:15:54;;;;;;;1.73;1.63;;;;;;;;;;1035333;28;20033;-76
2023/10/19 00:16:35;;;;;;;2.20;2.05;;;;;;;;;;1035566;28;20022;-75
2023/10/19 00:17:10;;;;;;;2.22;1.73;;;;;;;;;;1035662;28;20022;-75
2023/10/19 00:17:44;;;;;;;0.57;0.57;;;;;;;;;;1035628;28;20029;-75
2023/10/19 00:18:48;;;;;;;2.65;2.45;;;;;;;;;;1035728;28;20029;-75
2023/10/19 00:19:19;;;;;;;3.72;2.15;;;;;;;;;;1035555;28;20472;-76
2023/10/19 00:20:52;;;;;;;0.47;0.47;;;;;;;;;;1027351;28;20015;-76
2023/10/19 00:21:26;;;;;;;2.60;2.40;;;;;;;;;;1035787;28;20026;-76
2023/10/19 00:22:01;;;;;;;2.42;2.25;;;;;;;;;;1035459;28;20021;-76
2023/10/19 00:22:36;;;;;;;4.47;2.80;;;;;;;;;;1035633;28;20041;-75
2023/10/19 00:23:07;;;;;;;3.08;1.38;;;;;;;;;;1035813;28;20021;-76
2023/10/19 00:23:39;;;;;;;21.30;1.63;;;;;;;;;;1035818;28;20025;-76
2023/10/19 00:24:10;;;;;;;0.50;0.50;;;;;;;;;;1035103;28;20080;-76
2023/10/19 00:24:41;;;;;;;0.40;0.40;;;;;;;;;;1035635;28;20538;-76
2023/10/19 00:25:13;;;;;;;0.95;0.95;;;;;;;;;;1035463;28;20034;-76
2023/10/19 00:25:44;;;;;;;4.25;2.33;;;;;;;;;;1033614;28;20030;-75
2023/10/19 00:26:19;;;;;;;0.40;0.40;;;;;;;;;;1038890;28;20493;-76
2023/10/19 00:26:53;;;;;;;0.95;0.95;;;;;;;;;;1039698;28;21521;-76
2023/10/19 00:27:26;;;;;;;1.70;1.30;;;;;;;;;;1039430;28;20028;-73
2023/10/19 00:28:00;;;;;;;1.23;1.15;;;;;;;;;;1037063;28;20025;-73
2023/10/19 00:28:35;;;;;;;0.25;0.25;;;;;;;;;;1035629;28;20030;-75
2023/10/19 00:29:25;;;;;;;0.25;0.25;;;;;;;;;;1035899;28;20036;-73
2023/10/19 00:30:05;;;;;;;0.85;0.85;;;;;;;;;;1035176;28;20085;-73
2023/10/19 00:30:36;;;;;;;0.40;0.40;;;;;;;;;;1035824;28;20064;-76
2023/10/19 00:31:10;;;;;;;1.80;1.48;;;;;;;;;;1035795;28;20025;-75
2023/10/19 00:31:41;;;;;;;8.55;1.35;;;;;;;;;;1039450;28;20454;-75
2023/10/19 00:32:14;;;;;;;2.80;2.58;;;;;;;;;;1039411;28;20029;-75
2023/10/19 00:32:46;;;;;;;5.68;1.02;;;;;;;;;;1039552;28;20366;-75
2023/10/19 00:33:26;;;;;;;2.25;2.05;;;;;;;;;;1038527;28;20034;-75
2023/10/19 00:33:57;;;;;;;7.47;2.50;;;;;;;;;;1039208;28;20013;-75
2023/10/19 00:34:28;;;;;;;1.90;1.58;;;;;;;;;;1039505;28;20440;-75
2023/10/19 00:35:07;;;;;;;0.30;0.30;;;;;;;;;;1039610;28;20459;-75
2023/10/19 00:35:46;;;;;;;2.63;1.40;;;;;;;;;;1038186;28;20558;-75
2023/10/19 00:36:20;;;;;;;0.77;0.63;;;;;;;;;;1038961;28;20890;-75
2023/10/19 00:36:51;;;;;;;7.88;2.65;;;;;;;;;;1039684;28;20022;-75
2023/10/19 00:37:26;;;;;;;7.72;1.92;;;;;;;;;;1039095;28;20029;-75
2023/10/19 00:38:17;;;;;;;0.30;0.30;;;;;;;;;;1037959;28;20408;-75
2023/10/19 00:38:52;;;;;;;0.30;0.30;;;;;;;;;;1034689;28;20022;-75
2023/10/19 00:39:27;;;;;;;0.90;0.90;;;;;;;;;;1035274;28;20477;-75
2023/10/19 00:40:14;;;;;;;0.47;0.47;;;;;;;;;;1042838;28;20013;-75
2023/10/19 00:40:50;;;;;;;0.75;0.75;;;;;;;;;;1043294;28;20029;-75
2023/10/19 00:41:29;;;;;;;8.05;2.60;;;;;;;;;;1043493;28;20021;-76
2023/10/19 00:42:02;;;;;;;0.95;0.88;;;;;;;;;;1039043;28;20563;-76
2023/10/19 00:42:32;;;;;;;0.45;0.45;;;;;;;;;;1039321;28;20393;-76
2023/10/19 00:43:08;;;;;;;3.20;2.45;;;;;;;;;;1038264;28;20033;-75
2023/10/19 00:43:43;;;;;;;1.65;1.55;;;;;;;;;;1035826;28;20544;-75
2023/10/19 00:44:22;;;;;;;0.60;0.60;;;;;;;;;;1035370;28;20017;-75
2023/10/19 00:45:00;;;;;;;2.03;1.50;;;;;;;;;;1035685;28;20092;-75
2023/10/19 00:45:33;;;;;;;1.10;0.75;;;;;;;;;;1035145;28;20476;-75
2023/10/19 00:46:13;;;;;;;0.50;0.50;;;;;;;;;;1035367;28;20504;-75
2023/10/19 00:46:49;;;;;;;2.38;1.73;;;;;;;;;;1034698;28;20030;-75
2023/10/19 00:47:23;;;;;;;0.45;0.45;;;;;;;;;;1035247;28;20022;-75
2023/10/19 00:47:54;;;;;;;0.30;0.30;;;;;;;;;;1034198;28;20033;-75
2023/10/19 00:48:26;;;;;;;2.78;1.95;;;;;;;;;;1035538;28;20029;-75
2023/10/19 00:49:00;;;;;;;0.68;0.45;;;;;;;;;;1032194;28;20034;-75
2023/10/19 00:49:31;;;;;;;8.82;1.48;;;;;;;;;;1035321;28;20501;-72
2023/10/19 00:50:05;;;;;;;1.10;1.08;;;;;;;;;;1035280;28;20037;-72
2023/10/19 00:50:36;;;;;;;0.88;0.88;;;;;;;;;;1035513;28;20030;-75
2023/10/19 00:51:09;;;;;;;6.40;2.53;;;;;;;;;;1035742;28;20061;-74
2023/10/19 00:52:24;;;;;;;2.25;2.08;;;;;;;;;;1035636;28;20025;-75
2023/10/19 00:52:57;;;;;;;3.55;3.25;;;;;;;;;;1039425;28;20384;-75
2023/10/19 00:53:29;;;;;;;2.83;1.45;;;;;;;;;;1039190;28;20043;-75
2023/10/19 00:54:10;;;;;;;6.88;3.10;;;;;;;;;;1039019;28;20021;-75
2023/10/19 00:55:21;;;;;;;0.95;0.95;;;;;;;;;;1035175;28;20553;-75
2023/10/19 00:55:52;;;;;;;0.65;0.65;;;;;;;;;;1035550;28;20057;-75
2023/10/19 00:56:24;;;;;;;4.18;2.40;;;;;;;;;;1035373;28;20025;-75
2023/10/19 00:56:58;;;;;;;10.23;2.88;;;;;;;;;;1035640;28;20499;-75
2023/10/19 00:57:33;;;;;;;2.00;1.73;;;;;;;;;;1035390;28;20152;-76
2023/10/19 00:58:09;;;;;;;2.63;1.67;;;;;;;;;;1034868;28;20025;-76
2023/10/19 00:58:41;;;;;;;6.45;3.25;;;;;;;;;;1035670;28;20050;-75
2023/10/19 00:59:14;;;;;;;0.63;0.63;;;;;;;;;;1030482;28;20045;-75
2023/10/19 00:59:54;;;;;;;8.20;0.93;;;;;;;;;;1030475;28;20474;-75
2023/10/19 01:00:31;;;;;;;;;;;;;;;;;;1030590;28;20418;-75
2023/10/19 01:01:07;;;;;;;5.15;1.85;;;;;;;;;;1033396;28;19916;-75
2023/10/19 01:01:43;;;;;;;0.98;0.50;;;;;;;;;;1035090;28;20036;-75
2023/10/19 01:02:19;;;;;;;3.90;3.35;;;;;;;;;;1034683;28;20040;-76
2023/10/19 01:02:52;;;;;;;6.13;0.98;;;;;;;;;;1034283;28;20118;-75
2023/10/19 01:03:23;;;;;;;1.75;1.42;;;;;;;;;;1035199;28;20111;-76
2023/10/19 01:03:56;;;;;;;3.55;0.40;;;;;;;;;;1035166;28;20416;-75
2023/10/19 01:04:32;;;;;;;1.98;1.88;;;;;;;;;;1034833;28;20401;-75
2023/10/19 01:05:06;;;;;;;1.75;0.85;;;;;;;;;;1035571;28;20071;-75
2023/10/19 01:05:36;;;;;;;2.78;1.13;;;;;;;;;;1035440;28;20095;-74
2023/10/19 01:06:10;;;;;;;2.45;2.25;;;;;;;;;;1034598;28;20121;-72
2023/10/19 01:06:43;;;;;;;4.80;4.35;;;;;;;;;;1035552;28;20018;-72
2023/10/19 01:07:27;;;;;;;2.00;1.05;;;;;;;;;;1035465;28;20516;-72
2023/10/19 01:08:01;;;;;;;1.52;1.42;;;;;;;;;;1038464;28;20033;-72
2023/10/19 01:08:41;;;;;;;6.15;3.33;;;;;;;;;;1035682;28;20020;-72
2023/10/19 01:09:14;;;;;;;;;;;;;;;;;;1036018;28;20030;-75
2023/10/19 01:09:45;;;;;;;2.10;1.95;;;;;;;;;;1036298;28;20384;-75
2023/10/19 01:10:23;;;;;;;3.58;1.13;;;;;;;;;;1038145;28;20030;-74
2023/10/19 01:10:54;;;;;;;5.30;3.30;;;;;;;;;;1035855;28;20040;-75
2023/10/19 01:11:28;;;;;;;5.13;2.80;;;;;;;;;;1033554;28;20010;-74
2023/10/19 01:12:02;;;;;;;3.72;2.88;;;;;;;;;;1037790;28;20124;-74
2023/10/19 01:12:33;;;;;;;3.70;1.88;;;;;;;;;;1035321;28;20072;-74
2023/10/19 01:13:05;;;;;;;2.30;2.10;;;;;;;;;;1036921;28;20092;-75
2023/10/19 01:13:36;;;;;;;5.78;2.05;;;;;;;;;;1035136;28;20473;-75
2023/10/19 01:14:34;;;;;;;3.50;1.80;;;;;;;;;;1034472;28;20022;-74
2023/10/19 01:15:20;;;;;;;2.42;1.55;;;;;;;;;;1033068;28;20049;-74
2023/10/19 01:15:50;;;;;;;1.88;1.77;;;;;;;;;;1034848;28;20018;-74
2023/10/19 01:16:21;;;;;;;4.47;2.42;;;;;;;;;;1035827;28;20406;-74
2023/10/19 01:16:51;;;;;;;9.90;4.30;;;;;;;;;;1035204;28;20025;-75
2023/10/19 01:17:22;;;;;;;6.05;2.13;;;;;;;;;;1030480;28;20109;-75
2023/10/19 01:17:52;;;;;;;5.20;1.90;;;;;;;;;;1032818;28;20021;-75
2023/10/19 01:18:29;;;;;;;10.43;5.00;;;;;;;;;;1036638;28;20083;-75
2023/10/19 01:18:59;;;;;;;1.65;1.55;;;;;;;;;;1034220;28;20493;-75
2023/10/19 01:19:30;;;;;;;7.55;2.60;;;;;;;;;;1035090;28;20076;-74
2023/10/19 01:20:11;;;;;;;1.02;0.98;;;;;;;;;;1034922;28;20032;-75
2023/10/19 01:20:50;;;;;;;6.25;2.95;;;;;;;;;;1034645;28;20079;-76
2023/10/19 01:21:37;;;;;;;2.30;1.40;;;;;;;;;;1034703;28;20029;-75
2023/10/19 01:22:08;;;;;;;0.88;0.88;;;;;;;;;;1034680;28;20038;-74
2023/10/19 01:22:42;;;;;;;6.80;2.80;;;;;;;;;;1032759;28;20060;-75
2023/10/19 01:23:25;;;;;;;10.20;1.40;;;;;;;;;;1032377;28;20512;-74
2023/10/19 01:23:56;;;;;;;1.50;1.40;;;;;;;;;;1035575;28;20053;-75
2023/10/19 01:24:42;;;;;;;4.78;1.27;;;;;;;;;;1033730;28;20585;-75
2023/10/19 01:25:20;;;;;;;6.75;1.77;;;;;;;;;;1035170;28;20112;-75
2023/10/19 01:26:27;;;;;;;5.65;1.60;;;;;;;;;;1033726;28;20060;-75
2023/10/19 01:26:59;;;;;;;3.63;2.55;;;;;;;;;;1034652;28;20026;-75
2023/10/19 01:27:31;;;;;;;10.07;2.33;;;;;;;;;;1037935;28;20183;-75
2023/10/19 01:28:08;;;;;;;4.55;2.85;;;;;;;;;;1038416;28;20343;-75
2023/10/19 01:28:48;;;;;;;0.63;0.63;;;;;;;;;;1037594;28;20025;-76
2023/10/19 01:29:26;;;;;;;9.73;2.83;;;;;;;;;;1034929;28;20031;-75
2023/10/19 01:30:00;;;;;;;0.98;0.90;;;;;;;;;;1034657;28;20064;-75
2023/10/19 01:30:31;;;;;;;2.33;1.23;;;;;;;;;;1032455;28;20080;-76
2023/10/19 01:31:06;;;;;;;11.93;2.30;;;;;;;;;;1030478;28;20120;-75
2023/10/19 01:31:52;;;;;;;0.50;0.50;;;;;;;;;;1028151;28;20549;-75
2023/10/19 01:32:22;;;;;;;3.47;1.15;;;;;;;;;;1030031;28;20026;-76
2023/10/19 01:32:57;;;;;;;2.97;1.83;;;;;;;;;;1026407;28;20465;-75
2023/10/19 01:33:28;;;;;;;2.30;1.30;;;;;;;;;;1030683;28;20080;-75
2023/10/19 01:34:00;;;;;;;4.88;2.92;;;;;;;;;;1036113;28;20440;-75
2023/10/19 01:34:33;;;;;;;5.32;2.08;;;;;;;;;;1035832;28;20111;-75
2023/10/19 01:35:03;;;;;;;2.47;2.25;;;;;;;;;;1036660;28;20826;-75
2023/10/19 01:36:54;;;;;;;1.13;1.08;;;;;;;;;;1031810;28;20215;-75
2023/10/19 01:37:26;;;;;;;2.80;2.65;;;;;;;;;;1034361;28;20500;-75
2023/10/19 01:37:56;;;;;;;1.02;0.88;;;;;;;;;;1033846;28;20060;-75
2023/10/19 01:38:30;;;;;;;1.67;1.58;;;;;;;;;;1037402;28;20036;-76
2023/10/19 01:39:01;;;;;;;1.83;1.73;;;;;;;;;;1038023;28;20024;-75
2023/10/19 01:39:32;;;;;;;1.63;0.93;;;;;;;;;;1038378;28;20130;-75
2023/10/19 01:40:04;;;;;;;10.90;2.45;;;;;;;;;;1037939;28;20115;-76
2023/10/19 01:40:35;;;;;;;2.85;1.02;;;;;;;;;;1034939;28;20022;-75
2023/10/19 01:41:13;;;;;;;2.30;2.00;;;;;;;;;;1034566;28;20041;-75
2023/10/19 01:41:43;;;;;;;0.88;0.88;;;;;;;;;;1038533;28;20064;-75
2023/10/19 01:42:14;;;;;;;13.18;4.95;;;;;;;;;;1039566;28;20500;-74
2023/10/19 01:42:44;;;;;;;5.35;1.98;;;;;;;;;;1036395;28;20095;-75
2023/10/19 01:43:25;;;;;;;0.40;0.40;;;;;;;;;;1035130;28;20022;-75
2023/10/19 01:44:04;;;;;;;1.75;1.65;;;;;;;;;;1034518;28;20065;-74
2023/10/19 01:44:35;;;;;;;8.40;3.42;;;;;;;;;;1033978;28;20033;-75
2023/10/19 01:45:06;;;;;;;1.67;1.50;;;;;;;;;;1034820;28;20076;-74
2023/10/19 01:45:37;;;;;;;2.30;1.13;;;;;;;;;;1034222;28;20491;-77
2023/10/19 01:46:21;;;;;;;2.38;2.22;;;;;;;;;;1035109;28;20033;-76
2023/10/19 01:46:52;;;;;;;0.35;0.35;;;;;;;;;;1034273;28;20442;-76
2023/10/19 01:47:24;;;;;;;0.93;0.40;;;;;;;;;;1034934;28;20028;-75
2023/10/19 01:47:55;;;;;;;2.08;1.30;;;;;;;;;;1035066;28;20208;-76
2023/10/19 01:48:33;;;;;;;1.38;1.27;;;;;;;;;;1037671;28;20021;-76
2023/10/19 01:49:04;;;;;;;0.90;0.45;;;;;;;;;;1037774;28;20025;-76
2023/10/19 01:49:37;;;;;;;3.90;1.55;;;;;;;;;;1037716;28;20128;-76
2023/10/19 01:50:19;;;;;;;3.05;1.83;;;;;;;;;;1034290;28;20130;-77
2023/10/19 01:50:51;;;;;;;1.45;1.38;;;;;;;;;;1032702;28;20494;-73
2023/10/19 01:51:23;;;;;;;1.23;1.05;;;;;;;;;;1033340;28;20040;-76
2023/10/19 01:51:54;;;;;;;2.72;1.83;;;;;;;;;;1030382;28;20146;-76
2023/10/19 01:52:25;;;;;;;1.48;1.38;;;;;;;;;;1026658;28;20707;-75
2023/10/19 01:52:55;;;;;;;2.60;2.05;;;;;;;;;;1031430;28;20030;-75
2023/10/19 01:53:26;;;;;;;2.67;1.60;;;;;;;;;;1030726;28;20109;-76
2023/10/19 01:53:57;;;;;;;3.35;1.52;;;;;;;;;;1031012;28;20122;-76
2023/10/19 01:54:27;;;;;;;1.80;1.70;;;;;;;;;;1031038;28;20460;-75
2023/10/19 01:55:07;;;;;;;1.35;1.25;;;;;;;;;;1034500;28;20037;-76
2023/10/19 01:55:38;;;;;;;1.15;1.13;;;;;;;;;;1035458;28;20025;-75
2023/10/19 01:56:09;;;;;;;0.63;0.63;;;;;;;;;;1035127;28;20397;-76
2023/10/19 01:56:42;;;;;;;2.97;1.88;;;;;;;;;;1036990;28;20485;-76
2023/10/19 01:57:14;;;;;;;1.35;1.30;;;;;;;;;;1038479;28;20099;-76
2023/10/19 01:57:45;;;;;;;2.38;1.65;;;;;;;;;;1038484;28;20413;-75
2023/10/19 01:58:15;;;;;;;1.15;1.10;;;;;;;;;;1035052;28;20041;-75
2023/10/19 01:58:46;;;;;;;3.00;2.35;;;;;;;;;;1031506;28;20564;-75
2023/10/19 01:59:17;;;;;;;5.32;1.83;;;;;;;;;;1032125;28;20029;-75
2023/10/19 01:59:47;;;;;;;4.22;2.90;;;;;;;;;;1035031;28;20045;-75
2023/10/19 02:00:22;;;;;;;5.80;3.13;;;;;;;;;;1034166;28;20633;-75
2023/10/19 02:01:00;;;;;;;0.98;0.98;;;;;;;;;;1034668;28;20470;-75
2023/10/19 02:01:31;;;;;;;0.82;0.82;;;;;;;;;;1037687;28;20136;-76
2023/10/19 02:02:05;;;;;;;1.73;1.63;;;;;;;;;;1034823;28;20026;-75
2023/10/19 02:02:36;;;;;;;1.17;0.47;;;;;;;;;;1033779;28;20034;-75
2023/10/19 02:03:07;;;;;;;3.67;1.25;;;;;;;;;;1033175;28;20482;-75
2023/10/19 02:03:42;;;;;;;1.38;0.82;;;;;;;;;;1033408;28;20030;-76
2023/10/19 02:04:13;;;;;;;1.23;1.13;;;;;;;;;;1032659;28;20546;-75
2023/10/19 02:04:44;;;;;;;2.25;1.48;;;;;;;;;;1032307;28;20029;-75
2023/10/19 02:05:15;;;;;;;3.85;3.65;;;;;;;;;;1032995;28;20033;-75
2023/10/19 02:05:49;;;;;;;1.75;1.58;;;;;;;;;;1034581;28;20030;-75
2023/10/19 02:06:27;;;;;;;3.00;2.05;;;;;;;;;;1034305;28;21152;-76
2023/10/19 02:07:00;;;;;;;1.98;1.88;;;;;;;;;;1033911;28;20030;-75
2023/10/19 02:07:32;;;;;;;0.45;0.45;;;;;;;;;;1038137;28;20535;-75
2023/10/19 02:08:07;;;;;;;0.57;0.57;;;;;;;;;;1037455;28;20144;-76
2023/10/19 02:08:40;;;;;;;2.13;1.95;;;;;;;;;;1038262;28;20028;-76
2023/10/19 02:09:53;;;;;;;2.40;1.95;;;;;;;;;;1034291;28;20449;-76
2023/10/19 02:10:27;;;;;;;4.53;4.13;;;;;;;;;;1034001;28;20033;-76
2023/10/19 02:10:59;;;;;;;1.75;1.65;;;;;;;;;;1034517;28;20029;-76
2023/10/19 02:11:32;;;;;;;8.32;4.20;;;;;;;;;;1034133;28;20529;-75
2023/10/19 02:12:04;;;;;;;31.92;2.38;;;;;;;;;;1035054;28;20067;-76
2023/10/19 02:12:35;;;;;;;3.80;3.50;;;;;;;;;;1034133;28;20223;-75
2023/10/19 02:13:06;;;;;;;5.15;2.05;;;;;;;;;;1036380;28;20075;-74
2023/10/19 02:13:39;;;;;;;2.92;1.75;;;;;;;;;;1035238;28;20029;-74
2023/10/19 02:14:16;;;;;;;1.02;1.02;;;;;;;;;;1034603;28;20022;-74
2023/10/19 02:14:46;;;;;;;3.08;2.88;;;;;;;;;;1033989;28;20051;-74
2023/10/19 02:15:17;;;;;;;11.93;4.30;;;;;;;;;;1033535;28;20545;-74
2023/10/19 02:15:49;;;;;;;2.28;2.08;;;;;;;;;;1034511;28;20590;-75
2023/10/19 02:16:22;;;;;;;3.63;2.13;;;;;;;;;;1034113;28;20203;-75
2023/10/19 02:16:59;;;;;;;1.65;1.23;;;;;;;;;;1034191;28;20026;-75
2023/10/19 02:17:30;;;;;;;1.45;1.25;;;;;;;;;;1037131;28;20072;-75
2023/10/19 02:18:04;;;;;;;2.45;2.25;;;;;;;;;;1037975;28;20064;-76
2023/10/19 02:18:35;;;;;;;5.50;3.55;;;;;;;;;;1033074;28;20052;-76
2023/10/19 02:19:05;;;;;;;2.67;2.47;;;;;;;;;;1034188;28;20025;-75
2023/10/19 02:19:36;;;;;;;1.58;1.48;;;;;;;;;;1029861;28;20049;-75
2023/10/19 02:20:12;;;;;;;2.38;2.17;;;;;;;;;;1033761;28;20034;-76
2023/10/19 02:20:47;;;;;;;0.75;0.75;;;;;;;;;;1033731;28;20033;-76
2023/10/19 02:21:22;;;;;;;1.23;1.15;;;;;;;;;;1034029;28;20120;-74
2023/10/19 02:21:54;;;;;;;0.77;0.55;;;;;;;;;;1033427;28;20030;-75
2023/10/19 02:22:24;;;;;;;2.75;1.02;;;;;;;;;;1033532;28;20033;-76
2023/10/19 02:22:57;;;;;;;6.18;3.67;;;;;;;;;;1032596;28;20030;-76
2023/10/19 02:23:29;;;;;;;5.40;1.55;;;;;;;;;;1032898;28;20524;-76
2023/10/19 02:24:00;;;;;;;6.43;4.45;;;;;;;;;;1035468;28;20073;-77
2023/10/19 02:24:32;;;;;;;7.93;3.72;;;;;;;;;;1034336;28;20037;-77
2023/10/19 02:25:05;;;;;;;4.00;2.20;;;;;;;;;;1030474;28;20090;-76
2023/10/19 02:25:38;;;;;;;0.73;0.70;;;;;;;;;;1027532;28;20031;-76
2023/10/19 02:26:12;;;;;;;1.85;1.60;;;;;;;;;;1031893;28;20116;-76
2023/10/19 02:26:51;;;;;;;2.65;2.45;;;;;;;;;;1025616;28;20046;-76
2023/10/19 02:27:22;;;;;;;1.50;1.40;;;;;;;;;;1027750;28;20101;-76
2023/10/19 02:27:52;;;;;;;2.92;1.92;;;;;;;;;;1027862;28;20072;-76
2023/10/19 02:28:29;;;;;;;0.93;0.93;;;;;;;;;;1029035;28;20525;-77
2023/10/19 02:29:00;;;;;;;1.75;1.65;;;;;;;;;;1032757;28;20113;-76
2023/10/19 02:29:31;;;;;;;11.02;3.08;;;;;;;;;;1030458;28;20499;-76
2023/10/19 02:30:03;;;;;;;2.47;1.67;;;;;;;;;;1033911;28;20033;-76
2023/10/19 02:30:40;;;;;;;12.50;3.75;;;;;;;;;;1032826;28;20022;-76
2023/10/19 02:31:15;;;;;;;6.65;3.10;;;;;;;;;;1032271;28;20037;-76
2023/10/19 02:31:47;;;;;;;3.40;2.90;;;;;;;;;;1032681;28;20762;-76
2023/10/19 02:32:19;;;;;;;4.85;4.38;;;;;;;;;;1037412;28;20697;-76
2023/10/19 02:32:49;;;;;;;2.10;2.00;;;;;;;;;;1036013;28;20037;-75
2023/10/19 02:33:20;;;;;;;5.05;2.90;;;;;;;;;;1037449;28;20112;-76
2023/10/19 02:34:00;;;;;;;5.15;3.28;;;;;;;;;;1036644;28;21568;-76
2023/10/19 02:34:30;;;;;;;2.13;2.03;;;;;;;;;;1035407;28;20057;-76
2023/10/19 02:35:02;;;;;;;3.90;1.40;;;;;;;;;;1030860;28;20034;-75
2023/10/19 02:35:35;;;;;;;1.83;1.73;;;;;;;;;;1035790;28;20057;-75
2023/10/19 02:36:12;;;;;;;2.50;2.30;;;;;;;;;;1035212;28;20055;-76
2023/10/19 02:36:43;;;;;;;2.80;1.13;;;;;;;;;;1032696;28;20104;-75
2023/10/19 02:37:14;;;;;;;0.73;0.73;;;;;;;;;;1032992;28;20037;-75
2023/10/19 02:37:45;;;;;;;13.98;4.32;;;;;;;;;;1033342;28;20112;-75
2023/10/19 02:38:16;;;;;;;7.35;3.15;;;;;;;;;;1033459;28;20029;-75
2023/10/19 02:38:51;;;;;;;8.50;1.40;;;;;;;;;;1037404;28;20021;-75
2023/10/19 02:39:27;;;;;;;11.38;1.52;;;;;;;;;;1036287;28;20028;-75
2023/10/19 02:39:58;;;;;;;3.67;3.28;;;;;;;;;;1033796;28;20149;-75
2023/10/19 02:40:31;;;;;;;4.53;3.92;;;;;;;;;;1034390;28;20742;-77
2023/10/19 02:41:03;;;;;;;3.20;2.40;;;;;;;;;;1028724;28;20030;-75
2023/10/19 02:41:37;;;;;;;6.68;3.50;;;;;;;;;;1027282;28;20144;-75
2023/10/19 02:42:08;;;;;;;1.15;1.13;;;;;;;;;;1033239;28;20026;-75
2023/10/19 02:42:38;;;;;;;6.22;1.48;;;;;;;;;;1028295;28;20030;-76
2023/10/19 02:43:09;;;;;;;4.30;3.90;;;;;;;;;;1034829;28;20038;-75
2023/10/19 02:43:40;;;;;;;4.75;1.30;;;;;;;;;;1031041;28;20033;-75
2023/10/19 02:44:50;;;;;;;5.03;2.45;;;;;;;;;;1034355;28;20899;-75
2023/10/19 02:45:21;;;;;;;2.63;0.98;;;;;;;;;;1034468;28;20025;-75
2023/10/19 02:45:53;;;;;;;3.20;2.92;;;;;;;;;;1034771;28;20092;-76
2023/10/19 02:46:25;;;;;;;6.82;3.97;;;;;;;;;;1033660;28;20025;-76
2023/10/19 02:46:58;;;;;;;9.07;3.60;;;;;;;;;;1034949;28;20029;-75
2023/10/19 02:47:29;;;;;;;1.58;1.48;;;;;;;;;;1035168;28;20141;-75
2023/10/19 02:47:59;;;;;;;2.55;1.48;;;;;;;;;;1035034;28;20636;-75
2023/10/19 02:48:31;;;;;;;3.17;2.88;;;;;;;;;;1038473;28;20032;-75
2023/10/19 02:49:03;;;;;;;1.70;1.60;;;;;;;;;;1038609;28;20025;-76
2023/10/19 02:49:38;;;;;;;6.00;1.92;;;;;;;;;;1034613;28;20524;-75
2023/10/19 02:50:12;;;;;;;7.65;4.63;;;;;;;;;;1034309;28;20064;-75
2023/10/19 02:50:43;;;;;;;1.67;1.58;;;;;;;;;;1033881;28;20064;-74
2023/10/19 02:51:13;;;;;;;3.08;2.83;;;;;;;;;;1037140;28;20025;-75
2023/10/19 02:51:45;;;;;;;9.38;2.50;;;;;;;;;;1034232;28;20034;-75
2023/10/19 02:52:16;;;;;;;4.30;2.75;;;;;;;;;;1033651;28;20128;-75
2023/10/19 02:52:46;;;;;;;7.88;3.40;;;;;;;;;;1033345;28;20998;-75
2023/10/19 02:53:19;;;;;;;0.98;0.95;;;;;;;;;;1035268;28;20054;-76
2023/10/19 02:53:49;;;;;;;3.90;1.80;;;;;;;;;;1033836;28;20410;-74
2023/10/19 02:54:22;;;;;;;24.65;3.30;;;;;;;;;;1035559;28;20030;-75
2023/10/19 02:54:57;;;;;;;2.05;1.92;;;;;;;;;;1031683;28;20034;-76
2023/10/19 02:55:28;;;;;;;3.15;1.67;;;;;;;;;;1026030;28;20316;-75
2023/10/19 02:56:02;;;;;;;3.15;2.92;;;;;;;;;;1028996;28;20038;-76
2023/10/19 02:56:35;;;;;;;5.07;4.68;;;;;;;;;;1028978;28;20061;-74
2023/10/19 02:57:12;;;;;;;4.15;2.97;;;;;;;;;;1029365;28;20038;-75
2023/10/19 02:57:47;;;;;;;4.63;3.75;;;;;;;;;;1030033;28;20133;-77
2023/10/19 02:58:19;;;;;;;2.35;2.15;;;;;;;;;;1029809;28;20116;-75
2023/10/19 02:58:53;;;;;;;1.60;1.38;;;;;;;;;;1032982;28;21188;-77
2023/10/19 02:59:30;;;;;;;1.38;1.20;;;;;;;;;;1031251;28;20058;-75
2023/10/19 03:00:07;;;;;;;2.17;1.80;;;;;;;;;;1034339;28;20084;-75
2023/10/19 03:00:39;;;;;;;1.67;1.58;;;;;;;;;;1029456;28;20037;-75
2023/10/19 03:01:17;;;;;;;8.27;6.28;;;;;;;;;;1030614;28;20057;-76
2023/10/19 03:01:48;;;;;;;8.65;4.32;;;;;;;;;;1028745;28;20121;-76
2023/10/19 03:02:19;;;;;;;3.60;2.25;;;;;;;;;;1028448;28;20034;-76
2023/10/19 03:02:51;;;;;;;1.63;1.52;;;;;;;;;;1032759;28;20025;-75
2023/10/19 03:03:26;;;;;;;1.92;1.83;;;;;;;;;;1031463;28;20071;-74
2023/10/19 03:03:59;;;;;;;2.83;2.63;;;;;;;;;;1030242;28;20185;-74
2023/10/19 03:04:36;;;;;;;5.18;3.45;;;;;;;;;;1027872;28;20073;-74
2023/10/19 03:05:14;;;;;;;4.88;3.15;;;;;;;;;;1026601;28;20031;-75
2023/10/19 03:05:52;;;;;;;3.40;3.10;;;;;;;;;;1028171;28;20014;-75
2023/10/19 03:06:23;;;;;;;4.63;4.22;;;;;;;;;;1030249;28;20030;-75
2023/10/19 03:06:58;;;;;;;1.77;1.67;;;;;;;;;;1030582;28;20075;-74
2023/10/19 03:07:28;;;;;;;5.68;4.25;;;;;;;;;;1028681;28;20041;-74
2023/10/19 03:08:00;;;;;;;3.85;2.72;;;;;;;;;;1030062;28;20061;-75
2023/10/19 03:08:32;;;;;;;1.77;1.67;;;;;;;;;;1032762;28;20038;-76
2023/10/19 03:09:55;;;;;;;30.35;2.05;;;;;;;;;;1038575;28;20101;-76
2023/10/19 03:10:41;;;;;;;0.85;0.85;;;;;;;;;;1035726;28;20044;-76
2023/10/19 03:11:13;;;;;;;0.82;0.82;;;;;;;;;;1035662;28;20036;-75
2023/10/19 03:11:45;;;;;;;1.80;1.67;;;;;;;;;;1034707;28;20025;-75
2023/10/19 03:12:17;;;;;;;3.45;3.15;;;;;;;;;;1030603;28;20417;-75
2023/10/19 03:12:49;;;;;;;1.58;1.48;;;;;;;;;;1031714;28;20034;-75
2023/10/19 03:13:22;;;;;;;8.00;4.35;;;;;;;;;;1031629;28;21187;-75
2023/10/19 03:13:54;;;;;;;2.90;2.15;;;;;;;;;;1035486;28;20038;-74
2023/10/19 03:14:26;;;;;;;3.10;1.95;;;;;;;;;;1031554;28;20082;-74
2023/10/19 03:14:57;;;;;;;2.60;1.70;;;;;;;;;;1030092;28;20050;-75
2023/10/19 03:15:32;;;;;;;3.92;3.53;;;;;;;;;;1030654;28;20018;-75
2023/10/19 03:16:07;;;;;;;1.50;1.40;;;;;;;;;;1025325;28;20049;-75
2023/10/19 03:16:42;;;;;;;1.58;1.48;;;;;;;;;;1028777;28;20037;-74
2023/10/19 03:17:13;;;;;;;3.55;3.25;;;;;;;;;;1033788;28;20401;-74
2023/10/19 03:17:45;;;;;;;3.38;2.13;;;;;;;;;;1029519;28;20027;-74
2023/10/19 03:18:16;;;;;;;1.90;1.25;;;;;;;;;;1028423;28;20052;-74
2023/10/19 03:18:47;;;;;;;15.38;4.97;;;;;;;;;;1030219;28;20811;-75
2023/10/19 03:19:20;;;;;;;8.68;2.80;;;;;;;;;;1026221;28;20026;-75
2023/10/19 03:19:51;;;;;;;13.93;4.53;;;;;;;;;;1025084;28;20181;-76
2023/10/19 03:20:25;;;;;;;35.15;6.05;;;;;;;;;;1027103;28;20031;-75
2023/10/19 03:20:59;;;;;;;7.32;2.78;;;;;;;;;;1031382;28;20129;-75
2023/10/19 03:22:00;;;;;;;3.58;2.17;;;;;;;;;;1032874;28;20063;-75
2023/10/19 03:22:34;;;;;;;3.42;2.28;;;;;;;;;;1036932;28;20043;-76
2023/10/19 03:23:06;;;;;;;3.72;3.53;;;;;;;;;;1034003;28;20049;-76
2023/10/19 03:23:38;;;;;;;8.93;3.38;;;;;;;;;;1033138;28;20033;-75
2023/10/19 03:26:59;;;;;;;14.93;5.75;;;;;;;;;;1033364;28;20022;-75
2023/10/19 03:27:29;;;;;;;1.48;1.38;;;;;;;;;;1029834;28;20050;-75
2023/10/19 03:28:10;;;;;;;2.10;1.85;;;;;;;;;;1032490;28;20626;-75
2023/10/19 03:28:45;;;;;;;0.32;0.32;;;;;;;;;;1032404;28;20072;-75
2023/10/19 03:29:25;;;;;;;1.05;1.05;;;;;;;;;;1033731;28;20032;-75
2023/10/19 03:29:59;;;;;;;9.70;3.20;;;;;;;;;;1034166;28;20033;-74
2023/10/19 03:30:32;;;;;;;5.72;2.08;;;;;;;;;;1029810;28;20120;-74
2023/10/19 03:31:04;;;;;;;1.80;1.70;;;;;;;;;;1028324;28;20449;-75
2023/10/19 03:31:37;;;;;;;5.68;3.25;;;;;;;;;;1022897;28;20050;-76
2023/10/19 03:32:13;;;;;;;3.55;2.45;;;;;;;;;;1028281;28;20030;-76